createdAt,value
2019-03-05T00:01:04.135Z,2.77
2019-03-05T00:03:32.421Z,2.70
2019-03-05T00:06:00.680Z,2.40
2019-03-05T00:08:28.909Z,2.30
2019-03-05T00:10:57.161Z,2.37
2019-03-05T00:13:25.426Z,2.70
2019-03-05T00:15:55.525Z,2.70
2019-03-05T00:18:23.864Z,2.47
2019-03-05T00:20:52.125Z,2.20
2019-03-05T00:23:46.355Z,2.33
2019-03-05T00:26:15.122Z,2.43
2019-03-05T00:28:52.492Z,2.73
2019-03-05T00:31:32.566Z,2.23
2019-03-05T00:34:12.289Z,2.53
2019-03-05T00:36:43.828Z,2.80
2019-03-05T00:39:30.278Z,2.87
2019-03-05T00:42:01.797Z,2.70
2019-03-05T00:44:51.367Z,3.17
2019-03-05T00:47:37.736Z,2.93
2019-03-05T00:50:20.937Z,2.83
2019-03-05T00:52:55.112Z,2.57
2019-03-05T00:55:50.779Z,2.53
2019-03-05T00:58:22.594Z,2.50
2019-03-05T01:01:06.003Z,2.87
2019-03-05T01:04:00.218Z,2.70
2019-03-05T01:06:28.465Z,3.20
2019-03-05T01:08:57.284Z,2.90
2019-03-05T01:11:25.687Z,2.90
2019-03-05T01:13:53.953Z,2.43
2019-03-05T01:16:23.845Z,2.73
2019-03-05T01:18:52.082Z,2.33
2019-03-05T01:21:20.365Z,3.27
2019-03-05T01:23:48.625Z,2.93
2019-03-05T01:26:16.868Z,2.63
2019-03-05T01:28:45.113Z,2.80
2019-03-05T01:31:27.079Z,3.03
2019-03-05T01:33:56.977Z,2.90
2019-03-05T01:36:26.866Z,2.93
2019-03-05T01:38:56.760Z,2.83
2019-03-05T01:41:24.980Z,2.53
2019-03-05T01:43:53.240Z,3.13
2019-03-05T01:46:21.484Z,2.70
2019-03-05T01:48:49.833Z,2.67
2019-03-05T01:51:18.095Z,2.60
2019-03-05T01:53:46.497Z,3.00
2019-03-05T01:56:14.752Z,3.03
2019-03-05T01:58:42.976Z,2.53
2019-03-05T02:01:11.244Z,3.07
2019-03-05T02:03:39.476Z,3.17
2019-03-05T02:06:07.710Z,2.63
2019-03-05T02:08:35.996Z,2.70
2019-03-05T02:11:48.776Z,2.87
2019-03-05T02:14:16.996Z,2.57
2019-03-05T02:16:45.250Z,2.90
2019-03-05T02:19:35.921Z,2.60
2019-03-05T02:22:06.479Z,2.97
2019-03-05T02:25:00.869Z,2.33
2019-03-05T02:28:00.840Z,2.77
2019-03-05T02:30:53.628Z,2.67
2019-03-05T02:33:41.675Z,2.27
2019-03-05T02:36:33.542Z,2.30
2019-03-05T02:39:07.829Z,2.40
2019-03-05T02:42:00.319Z,2.53
2019-03-05T02:44:37.342Z,2.30
2019-03-05T02:47:42.101Z,2.70
2019-03-05T02:50:39.388Z,2.60
2019-03-05T02:53:39.675Z,2.73
2019-03-05T02:56:23.222Z,3.03
2019-03-05T02:58:50.557Z,2.27
2019-03-05T03:01:38.586Z,2.67
2019-03-05T03:04:14.734Z,2.60
2019-03-05T03:06:43.844Z,2.80
2019-03-05T03:09:27.131Z,2.20
2019-03-05T03:11:55.395Z,2.33
2019-03-05T03:14:24.688Z,1.83
2019-03-05T03:16:53.100Z,2.40
2019-03-05T03:19:21.365Z,2.20
2019-03-05T03:21:49.606Z,2.27
2019-03-05T03:24:17.877Z,2.57
2019-03-05T03:26:47.675Z,2.37
2019-03-05T03:29:16.990Z,1.90
2019-03-05T03:31:45.264Z,2.13
2019-03-05T03:34:13.503Z,2.57
2019-03-05T03:36:41.777Z,2.23
2019-03-05T03:39:10.011Z,2.23
2019-03-05T03:41:38.247Z,1.83
2019-03-05T03:44:06.604Z,2.50
2019-03-05T03:46:34.953Z,2.37
2019-03-05T03:49:03.306Z,1.80
2019-03-05T03:51:32.337Z,2.37
2019-03-05T03:54:00.560Z,2.03
2019-03-05T03:56:30.177Z,1.90
2019-03-05T03:58:58.443Z,2.23
2019-03-05T04:01:26.674Z,2.23
2019-03-05T04:03:54.938Z,1.90
2019-03-05T04:06:23.186Z,2.20
2019-03-05T04:08:51.427Z,2.13
2019-03-05T04:11:19.665Z,2.37
2019-03-05T04:13:47.918Z,1.97
2019-03-05T04:16:16.234Z,2.33
2019-03-05T04:18:46.793Z,2.10
2019-03-05T04:21:15.054Z,1.87
2019-03-05T04:23:43.316Z,2.13
2019-03-05T04:26:12.634Z,2.23
2019-03-05T04:28:40.865Z,2.17
2019-03-05T04:31:12.481Z,2.10
2019-03-05T04:33:40.681Z,2.43
2019-03-05T04:36:08.925Z,2.17
2019-03-05T04:38:37.180Z,1.90
2019-03-05T04:41:05.753Z,2.10
2019-03-05T04:43:37.997Z,2.10
2019-03-05T04:46:07.864Z,1.97
2019-03-05T04:48:36.531Z,2.37
2019-03-05T04:51:09.566Z,1.83
2019-03-05T04:56:42.380Z,1.97
2019-03-05T04:59:10.605Z,2.33
2019-03-05T05:01:38.906Z,1.93
2019-03-05T05:04:07.166Z,1.80
2019-03-05T05:06:35.393Z,2.10
2019-03-05T05:12:32.346Z,2.40
2019-03-05T05:15:00.586Z,2.00
2019-03-05T05:17:28.837Z,2.27
2019-03-05T05:19:57.104Z,2.00
2019-03-05T05:22:25.326Z,2.40
2019-03-05T05:24:53.561Z,3.20
2019-03-05T05:27:21.810Z,4.00
2019-03-05T05:29:50.079Z,4.27
2019-03-05T05:32:18.320Z,4.07
2019-03-05T05:34:46.565Z,4.00
2019-03-05T05:37:14.801Z,4.50
2019-03-05T05:40:21.659Z,3.80
2019-03-05T05:42:49.901Z,4.30
2019-03-05T05:45:21.002Z,4.63
2019-03-05T05:47:49.225Z,4.13
2019-03-05T05:50:17.492Z,3.77
2019-03-05T05:52:45.748Z,4.20
2019-03-05T05:55:14.032Z,3.60
2019-03-05T05:57:42.280Z,3.83
2019-03-05T06:00:13.309Z,3.43
2019-03-05T06:02:41.565Z,3.40
2019-03-05T06:05:09.894Z,3.50
2019-03-05T06:07:38.163Z,3.40
2019-03-05T06:10:12.517Z,3.43
2019-03-05T06:12:40.764Z,3.37
2019-03-05T06:15:13.165Z,3.30
2019-03-05T06:17:41.413Z,3.20
2019-03-05T06:20:17.317Z,3.10
2019-03-05T06:22:45.540Z,2.97
2019-03-05T06:25:14.634Z,3.10
2019-03-05T06:27:42.869Z,2.73
2019-03-05T06:30:19.560Z,2.90
2019-03-05T06:32:47.884Z,2.93
2019-03-05T06:35:16.138Z,3.00
2019-03-05T06:37:44.395Z,2.83
2019-03-05T06:40:17.558Z,2.50
2019-03-05T06:42:45.790Z,2.50
2019-03-05T06:45:18.049Z,2.90
2019-03-05T06:47:46.329Z,2.77
2019-03-05T06:50:17.925Z,2.63
2019-03-05T06:52:46.156Z,2.63
2019-03-05T06:55:15.148Z,2.80
2019-03-05T06:57:43.542Z,2.80
2019-03-05T07:00:21.127Z,2.40
2019-03-05T07:02:49.348Z,2.60
2019-03-05T07:05:54.548Z,2.40
2019-03-05T07:08:22.792Z,2.40
2019-03-05T07:11:19.913Z,2.70
2019-03-05T07:13:49.484Z,2.80
2019-03-05T07:16:29.662Z,2.63
2019-03-05T07:18:59.583Z,2.67
2019-03-05T07:21:50.483Z,2.70
2019-03-05T07:24:46.704Z,2.40
2019-03-05T07:27:21.328Z,2.30
2019-03-05T07:29:49.561Z,2.23
2019-03-05T07:32:17.819Z,2.37
2019-03-05T07:34:47.737Z,2.50
2019-03-05T07:37:16.010Z,2.27
2019-03-05T07:39:44.333Z,2.40
2019-03-05T07:42:12.566Z,2.03
2019-03-05T07:44:40.833Z,2.03
2019-03-05T07:47:09.158Z,2.20
2019-03-05T07:49:43.722Z,1.90
2019-03-05T07:52:07.518Z,2.17
2019-03-05T07:54:35.794Z,2.17
2019-03-05T07:57:04.019Z,1.67
2019-03-05T07:59:32.254Z,1.90
2019-03-05T08:02:00.521Z,2.10
2019-03-05T08:04:28.763Z,2.30
2019-03-05T08:06:56.994Z,2.13
2019-03-05T08:09:35.587Z,2.00
2019-03-05T08:12:35.625Z,2.37
2019-03-05T08:15:07.144Z,1.50
2019-03-05T08:17:35.361Z,1.70
2019-03-05T08:20:04.873Z,1.87
2019-03-05T08:22:33.125Z,1.77
2019-03-05T08:25:01.369Z,2.17
2019-03-05T08:27:29.628Z,2.00
2019-03-05T08:29:57.873Z,1.40
2019-03-05T08:32:26.116Z,1.73
2019-03-05T08:34:54.360Z,1.50
2019-03-05T08:37:22.584Z,1.80
2019-03-05T08:39:50.904Z,2.03
2019-03-05T08:42:19.143Z,1.50
2019-03-05T08:44:50.618Z,1.60
2019-03-05T08:47:17.358Z,1.20
2019-03-05T08:49:45.586Z,1.70
2019-03-05T08:52:13.841Z,1.70
2019-03-05T08:54:42.107Z,1.50
2019-03-05T08:57:10.349Z,1.70
2019-03-05T08:59:38.605Z,3.50
2019-03-05T09:02:06.842Z,3.27
2019-03-05T09:04:35.128Z,3.30
2019-03-05T09:07:03.367Z,2.97
2019-03-05T09:09:31.619Z,2.27
2019-03-05T09:11:59.852Z,1.80
2019-03-05T09:14:28.136Z,2.63
2019-03-05T09:16:56.409Z,2.60
2019-03-05T09:19:24.656Z,2.67
2019-03-05T09:21:53.117Z,2.50
2019-03-05T09:24:21.348Z,2.67
2019-03-05T09:26:51.533Z,2.40
2019-03-05T09:29:19.532Z,2.23
2019-03-05T09:31:47.774Z,2.53
2019-03-05T09:34:16.009Z,2.10
2019-03-05T09:36:50.736Z,2.23
2019-03-05T09:39:14.206Z,2.90
2019-03-05T09:41:42.433Z,2.37
2019-03-05T09:44:10.677Z,2.27
2019-03-05T09:46:38.932Z,2.50
2019-03-05T09:49:07.230Z,2.83
2019-03-05T09:51:35.483Z,2.43
2019-03-05T09:54:03.710Z,2.63
2019-03-05T09:56:32.020Z,2.23
2019-03-05T09:59:00.242Z,2.77
2019-03-05T10:01:28.524Z,2.60
2019-03-05T10:03:56.768Z,2.77
2019-03-05T10:06:24.988Z,3.13
2019-03-05T10:08:53.234Z,2.83
2019-03-05T10:11:21.496Z,3.30
2019-03-05T10:13:49.787Z,3.37
2019-03-05T10:16:18.021Z,3.30
2019-03-05T10:18:46.254Z,2.97
2019-03-05T10:21:14.516Z,3.20
2019-03-05T10:23:42.760Z,3.17
2019-03-05T10:26:11.022Z,3.07
2019-03-05T10:28:39.282Z,4.30
2019-03-05T10:31:07.542Z,4.07
2019-03-05T10:33:35.796Z,3.80
2019-03-05T10:36:04.277Z,3.70
2019-03-05T10:38:32.589Z,3.10
2019-03-05T10:41:01.727Z,3.20
2019-03-05T10:43:29.985Z,3.07
2019-03-05T10:45:58.257Z,3.43
2019-03-05T10:48:26.504Z,3.13
2019-03-05T10:50:54.764Z,3.50
2019-03-05T10:53:23.003Z,3.23
2019-03-05T10:55:51.529Z,3.20
2019-03-05T10:58:19.757Z,2.57
2019-03-05T11:00:49.256Z,3.03
2019-03-05T11:03:17.672Z,3.70
2019-03-05T11:05:46.777Z,3.97
2019-03-05T11:08:23.933Z,4.67
2019-03-05T11:10:52.404Z,5.30
2019-03-05T11:13:20.642Z,6.27
2019-03-05T11:15:52.268Z,6.37
2019-03-05T11:18:28.929Z,6.43
2019-03-05T11:20:50.468Z,7.07
2019-03-05T11:23:18.707Z,7.83
2019-03-05T11:25:46.967Z,7.70
2019-03-05T11:28:15.206Z,7.60
2019-03-05T11:30:43.464Z,6.67
2019-03-05T11:33:11.755Z,6.40
2019-03-05T11:35:40.005Z,6.00
2019-03-05T11:38:08.253Z,6.10
2019-03-05T11:40:36.592Z,5.90
2019-03-05T11:43:13.288Z,5.40
2019-03-05T11:45:42.395Z,5.40
2019-03-05T11:48:10.659Z,5.53
2019-03-05T11:50:38.953Z,5.50
2019-03-05T11:53:07.189Z,5.40
2019-03-05T11:55:35.416Z,5.30
2019-03-05T11:58:03.661Z,5.67
2019-03-05T12:00:34.765Z,5.27
2019-03-05T12:03:03.012Z,5.20
2019-03-05T12:05:31.258Z,5.20
2019-03-05T12:07:59.485Z,4.97
2019-03-05T12:10:27.748Z,4.50
2019-03-05T12:12:56.006Z,4.70
2019-03-05T12:15:26.486Z,4.50
2019-03-05T12:17:54.761Z,4.33
2019-03-05T12:20:23.004Z,4.50
2019-03-05T12:22:51.229Z,4.70
2019-03-05T12:25:23.660Z,3.87
2019-03-05T12:27:51.159Z,4.30
2019-03-05T12:30:24.226Z,4.13
2019-03-05T12:32:52.477Z,3.97
2019-03-05T12:35:20.758Z,4.57
2019-03-05T12:37:49.321Z,4.20
2019-03-05T12:40:19.873Z,4.20
2019-03-05T12:42:48.193Z,4.20
2019-03-05T12:45:17.498Z,4.10
2019-03-05T12:47:45.732Z,4.30
2019-03-05T12:50:23.100Z,4.00
2019-03-05T12:52:51.856Z,3.90
2019-03-05T12:55:21.562Z,3.80
2019-03-05T12:57:49.817Z,3.97
2019-03-05T13:00:20.084Z,3.60
2019-03-05T13:02:48.705Z,3.77
2019-03-05T13:05:17.256Z,3.60
2019-03-05T13:07:45.500Z,4.03
2019-03-05T13:10:22.801Z,3.87
2019-03-05T13:12:51.054Z,3.80
2019-03-05T13:15:25.101Z,3.83
2019-03-05T13:17:53.329Z,3.27
2019-03-05T13:20:22.584Z,3.50
2019-03-05T13:22:51.561Z,3.90
2019-03-05T13:25:24.175Z,3.30
2019-03-05T13:27:51.838Z,3.83
2019-03-05T13:30:25.823Z,3.90
2019-03-05T13:32:54.115Z,3.60
2019-03-05T13:35:25.469Z,3.93
2019-03-05T13:37:55.502Z,3.60
2019-03-05T13:40:34.145Z,3.10
2019-03-05T13:43:00.353Z,3.50
2019-03-05T13:45:28.625Z,3.20
2019-03-05T13:48:19.739Z,3.23
2019-03-05T13:50:57.232Z,3.30
2019-03-05T13:53:37.473Z,3.17
2019-03-05T13:56:14.655Z,3.07
2019-03-05T13:58:48.797Z,3.30
2019-03-05T14:01:17.073Z,3.30
2019-03-05T14:04:06.390Z,3.00
2019-03-05T14:06:49.425Z,3.20
2019-03-05T14:09:17.854Z,2.97
2019-03-05T14:11:47.334Z,2.90
2019-03-05T14:14:22.862Z,2.53
2019-03-05T14:16:55.350Z,2.63
2019-03-05T14:19:23.631Z,2.50
2019-03-05T14:21:51.862Z,2.43
2019-03-05T14:24:20.090Z,2.43
2019-03-05T14:26:48.359Z,2.17
2019-03-05T14:29:16.705Z,2.50
2019-03-05T14:31:45.363Z,2.57
2019-03-05T14:34:13.724Z,2.52
2019-03-05T14:36:42.095Z,1.87
2019-03-05T14:39:20.245Z,2.07
2019-03-05T14:41:48.607Z,2.77
2019-03-05T14:44:16.812Z,1.90
2019-03-05T14:46:46.372Z,1.90
2019-03-05T14:49:14.698Z,2.00
2019-03-05T14:51:42.971Z,1.87
2019-03-05T14:54:11.232Z,1.90
2019-03-05T14:56:39.659Z,2.23
2019-03-05T14:59:07.896Z,2.10
2019-03-05T15:01:36.118Z,2.00
2019-03-05T15:04:04.456Z,2.00
2019-03-05T15:06:32.710Z,1.80
2019-03-05T15:09:01.009Z,1.80
2019-03-05T15:11:29.240Z,2.20
2019-03-05T15:13:57.535Z,1.73
2019-03-05T15:16:25.850Z,2.00
2019-03-05T15:18:54.200Z,1.83
2019-03-05T15:21:22.552Z,1.70
2019-03-05T15:23:50.927Z,1.70
2019-03-05T15:26:19.238Z,2.17
2019-03-05T15:28:56.176Z,2.20
2019-03-05T15:31:17.557Z,2.23
2019-03-05T15:33:46.030Z,1.93
2019-03-05T15:36:23.833Z,1.93
2019-03-05T15:38:44.286Z,2.03
2019-03-05T15:41:12.600Z,1.77
2019-03-05T15:43:40.905Z,1.67
2019-03-05T15:46:09.278Z,2.00
2019-03-05T15:48:37.678Z,1.50
2019-03-05T15:51:05.955Z,2.07
2019-03-05T15:53:34.311Z,2.00
2019-03-05T15:56:02.609Z,1.73
2019-03-05T15:58:30.865Z,2.47
2019-03-05T16:00:59.151Z,2.70
2019-03-05T16:03:27.412Z,1.90
2019-03-05T16:05:57.796Z,2.03
2019-03-05T16:08:26.247Z,2.47
2019-03-05T16:10:58.465Z,1.97
2019-03-05T16:13:24.584Z,2.07
2019-03-05T16:15:52.818Z,1.50
2019-03-05T16:18:21.093Z,1.77
2019-03-05T16:20:49.357Z,2.07
2019-03-05T16:23:17.589Z,2.43
2019-03-05T16:25:50.253Z,2.27
2019-03-05T16:28:16.474Z,1.87
2019-03-05T16:30:46.332Z,1.93
2019-03-05T16:33:18.944Z,2.20
2019-03-05T16:36:04.371Z,2.10
2019-03-05T16:38:51.218Z,2.10
2019-03-05T16:41:38.664Z,1.60
2019-03-05T16:44:08.579Z,1.80
2019-03-05T16:46:41.393Z,1.70
2019-03-05T16:49:13.991Z,2.07
2019-03-05T16:52:00.825Z,1.63
2019-03-05T16:54:39.955Z,2.33
2019-03-05T16:57:12.648Z,2.03
2019-03-05T16:59:53.223Z,2.20
2019-03-05T17:02:23.055Z,2.00
2019-03-05T17:05:09.380Z,1.90
2019-03-05T17:07:41.691Z,1.90
2019-03-05T17:10:30.179Z,2.30
2019-03-05T17:12:58.575Z,1.53
2019-03-05T17:15:26.828Z,1.93
2019-03-05T17:17:55.088Z,1.87
2019-03-05T17:20:23.313Z,1.97
2019-03-05T17:22:51.548Z,2.10
2019-03-05T17:25:23.028Z,1.67
2019-03-05T17:27:51.276Z,2.13
2019-03-05T17:30:19.507Z,1.80
2019-03-05T17:32:47.831Z,2.20
2019-03-05T17:35:16.072Z,2.00
2019-03-05T17:37:44.764Z,2.27
2019-03-05T17:40:13.922Z,2.30
2019-03-05T17:42:42.220Z,1.90
2019-03-05T17:45:19.002Z,1.57
2019-03-05T17:47:47.230Z,1.87
2019-03-05T17:50:15.453Z,1.70
2019-03-05T17:52:43.688Z,1.50
2019-03-05T17:55:27.266Z,1.90
2019-03-05T17:57:55.702Z,1.87
2019-03-05T18:00:35.335Z,1.60
2019-03-05T18:03:03.585Z,2.23
2019-03-05T18:05:31.834Z,1.90
2019-03-05T18:08:00.138Z,1.80
2019-03-05T18:10:28.360Z,1.73
2019-03-05T18:12:56.629Z,1.70
2019-03-05T18:15:24.844Z,1.77
2019-03-05T18:17:53.139Z,1.83
2019-03-05T18:20:22.136Z,1.70
2019-03-05T18:22:50.452Z,1.97
2019-03-05T18:25:18.749Z,2.10
2019-03-05T18:27:47.353Z,2.07
2019-03-05T18:30:29.362Z,2.27
2019-03-05T18:32:57.889Z,2.20
2019-03-05T18:35:26.203Z,1.97
2019-03-05T18:37:54.814Z,2.10
2019-03-05T18:40:23.994Z,1.73
2019-03-05T18:42:52.428Z,2.03
2019-03-05T18:45:32.112Z,2.40
2019-03-05T18:48:00.344Z,2.20
2019-03-05T18:50:28.606Z,2.97
2019-03-05T18:53:01.393Z,2.47
2019-03-05T18:55:29.797Z,2.40
2019-03-05T18:57:58.068Z,3.30
2019-03-05T19:00:27.741Z,3.10
2019-03-05T19:03:15.877Z,2.53
2019-03-05T19:05:44.273Z,2.97
2019-03-05T19:08:12.501Z,2.97
2019-03-05T19:10:40.770Z,2.87
2019-03-05T19:13:09.009Z,2.60
2019-03-05T19:15:37.313Z,3.07
2019-03-05T19:18:06.306Z,2.97
2019-03-05T19:20:34.545Z,3.13
2019-03-05T19:23:02.821Z,2.93
2019-03-05T19:25:33.239Z,3.03
2019-03-05T19:28:01.585Z,3.20
2019-03-05T19:30:34.819Z,3.00
2019-03-05T19:33:03.088Z,3.27
2019-03-05T19:35:31.430Z,3.40
2019-03-05T19:37:59.818Z,3.43
2019-03-05T19:40:31.563Z,4.43
2019-03-05T19:42:59.815Z,4.40
2019-03-05T19:45:28.088Z,4.10
2019-03-05T19:48:15.769Z,4.20
2019-03-05T19:50:44.310Z,4.80
2019-03-05T19:53:12.551Z,4.60
2019-03-05T19:55:42.116Z,4.47
2019-03-05T19:58:12.025Z,4.37
2019-03-05T20:01:01.058Z,4.33
2019-03-05T20:03:29.415Z,4.87
2019-03-05T20:05:58.920Z,4.83
2019-03-05T20:08:28.835Z,4.57
2019-03-05T20:10:57.464Z,5.00
2019-03-05T20:13:25.820Z,5.37
2019-03-05T20:15:54.403Z,5.63
2019-03-05T20:18:23.255Z,5.10
2019-03-05T20:20:51.519Z,5.17
2019-03-05T20:23:19.775Z,5.00
2019-03-05T20:25:48.041Z,5.47
2019-03-05T20:28:16.271Z,5.00
2019-03-05T20:30:44.548Z,5.57
2019-03-05T20:33:12.985Z,5.03
2019-03-05T20:35:43.356Z,5.10
2019-03-05T20:38:11.660Z,4.93
2019-03-05T20:40:39.906Z,5.53
2019-03-05T20:43:08.197Z,5.20
2019-03-05T20:45:45.111Z,5.60
2019-03-05T20:48:13.760Z,5.10
2019-03-05T20:50:42.329Z,4.80
2019-03-05T20:53:10.626Z,5.03
2019-03-05T20:55:39.999Z,5.00
2019-03-05T20:58:08.310Z,4.67
2019-03-05T21:00:37.889Z,4.97
2019-03-05T21:03:07.711Z,4.73
2019-03-05T21:05:41.888Z,4.83
2019-03-05T21:08:10.210Z,5.00
2019-03-05T21:10:38.451Z,4.80
2019-03-05T21:13:07.094Z,4.67
2019-03-05T21:15:36.162Z,4.27
2019-03-05T21:18:09.750Z,4.70
2019-03-05T21:20:39.212Z,4.90
2019-03-05T21:23:07.615Z,4.80
2019-03-05T21:25:35.857Z,5.00
2019-03-05T21:28:04.104Z,4.57
2019-03-05T21:30:32.379Z,4.70
2019-03-05T21:33:00.616Z,4.63
2019-03-05T21:35:28.908Z,4.87
2019-03-05T21:37:58.428Z,4.63
2019-03-05T21:40:29.950Z,4.80
2019-03-05T21:42:58.221Z,4.97
2019-03-05T21:45:48.280Z,4.93
2019-03-05T21:48:16.542Z,4.93
2019-03-05T21:50:44.766Z,5.00
2019-03-05T21:53:12.988Z,4.83
2019-03-05T21:55:41.254Z,4.90
2019-03-05T21:58:09.772Z,4.93
2019-03-05T22:00:39.641Z,4.80
2019-03-05T22:03:07.929Z,5.20
2019-03-05T22:05:36.163Z,4.63
2019-03-05T22:08:04.419Z,4.90
2019-03-05T22:10:32.948Z,5.33
2019-03-05T22:13:01.196Z,4.83
2019-03-05T22:15:30.974Z,5.00
2019-03-05T22:17:59.237Z,4.90
2019-03-05T22:20:27.585Z,4.80
2019-03-05T22:22:55.809Z,4.57
2019-03-05T22:25:24.744Z,4.80
2019-03-05T22:27:53.032Z,5.07
2019-03-05T22:30:35.365Z,4.80
2019-03-05T22:33:03.609Z,5.00
2019-03-05T22:35:31.837Z,4.40
2019-03-05T22:38:00.097Z,5.17
2019-03-05T22:40:29.078Z,4.70
2019-03-05T22:42:57.336Z,4.93
2019-03-05T22:45:30.031Z,5.00
2019-03-05T22:47:58.268Z,4.97
2019-03-05T22:50:26.520Z,4.70
2019-03-05T22:52:54.773Z,5.00
2019-03-05T22:55:23.006Z,4.80
2019-03-05T22:57:51.274Z,5.23
2019-03-05T23:00:40.790Z,4.80
2019-03-05T23:03:12.218Z,4.90
2019-03-05T23:05:40.489Z,5.20
2019-03-05T23:08:08.942Z,4.83
2019-03-05T23:10:37.165Z,5.43
2019-03-05T23:13:05.441Z,5.53
2019-03-05T23:15:33.867Z,5.30
2019-03-05T23:18:02.113Z,5.00
2019-03-05T23:20:30.624Z,5.07
2019-03-05T23:22:58.858Z,5.33
2019-03-05T23:25:27.084Z,5.50
2019-03-05T23:27:55.344Z,5.00
2019-03-05T23:30:23.599Z,5.40
2019-03-05T23:32:52.972Z,5.00
2019-03-05T23:35:21.219Z,4.83
2019-03-05T23:37:49.454Z,5.10
2019-03-05T23:40:17.680Z,5.03
2019-03-05T23:42:45.960Z,5.00
2019-03-05T23:45:18.228Z,5.17
2019-03-05T23:47:46.465Z,5.20
2019-03-05T23:50:16.749Z,5.27
2019-03-05T23:52:45.065Z,5.20
2019-03-05T23:55:14.160Z,4.80
2019-03-05T23:57:42.813Z,5.40
